sensor_id;sensor_type;location;lat;lon;timestamp;temperature;humidity
72484;DHT22;74199;52.014;5.430;2023-11-21T00:02:21;19.50;51.70
72484;DHT22;74199;52.014;5.430;2023-11-21T00:04:49;19.50;51.60
72484;DHT22;74199;52.014;5.430;2023-11-21T00:07:16;19.50;51.50
72484;DHT22;74199;52.014;5.430;2023-11-21T00:09:43;19.50;51.40
72484;DHT22;74199;52.014;5.430;2023-11-21T00:12:10;19.50;51.30
72484;DHT22;74199;52.014;5.430;2023-11-21T00:14:38;19.50;51.30
72484;DHT22;74199;52.014;5.430;2023-11-21T00:17:07;19.50;51.20
72484;DHT22;74199;52.014;5.430;2023-11-21T00:19:36;19.50;51.20
72484;DHT22;74199;52.014;5.430;2023-11-21T00:22:03;19.50;51.10
72484;DHT22;74199;52.014;5.430;2023-11-21T00:24:30;19.50;51.10
72484;DHT22;74199;52.014;5.430;2023-11-21T00:26:59;19.50;51.10
72484;DHT22;74199;52.014;5.430;2023-11-21T00:29:26;19.50;51.10
72484;DHT22;74199;52.014;5.430;2023-11-21T00:31:54;19.50;51.10
72484;DHT22;74199;52.014;5.430;2023-11-21T00:34:21;19.50;51.10
72484;DHT22;74199;52.014;5.430;2023-11-21T00:36:48;19.50;51.00
72484;DHT22;74199;52.014;5.430;2023-11-21T00:39:15;19.50;51.00
72484;DHT22;74199;52.014;5.430;2023-11-21T00:41:42;19.50;51.00
72484;DHT22;74199;52.014;5.430;2023-11-21T00:44:11;19.50;50.90
72484;DHT22;74199;52.014;5.430;2023-11-21T00:46:38;19.50;51.00
72484;DHT22;74199;52.014;5.430;2023-11-21T00:49:05;19.50;51.00
72484;DHT22;74199;52.014;5.430;2023-11-21T00:51:32;19.60;51.00
72484;DHT22;74199;52.014;5.430;2023-11-21T00:53:59;19.60;51.00
72484;DHT22;74199;52.014;5.430;2023-11-21T00:56:27;19.50;51.00
72484;DHT22;74199;52.014;5.430;2023-11-21T00:58:54;19.50;51.10
72484;DHT22;74199;52.014;5.430;2023-11-21T01:01:21;19.60;51.10
72484;DHT22;74199;52.014;5.430;2023-11-21T01:03:49;19.50;51.10
72484;DHT22;74199;52.014;5.430;2023-11-21T01:06:17;19.50;51.10
72484;DHT22;74199;52.014;5.430;2023-11-21T01:08:44;19.60;51.20
72484;DHT22;74199;52.014;5.430;2023-11-21T01:11:11;19.60;51.10
72484;DHT22;74199;52.014;5.430;2023-11-21T01:13:42;19.60;51.20
72484;DHT22;74199;52.014;5.430;2023-11-21T01:16:09;19.60;51.20
72484;DHT22;74199;52.014;5.430;2023-11-21T01:18:36;19.60;51.20
72484;DHT22;74199;52.014;5.430;2023-11-21T01:21:03;19.60;51.20
72484;DHT22;74199;52.014;5.430;2023-11-21T01:23:31;19.60;51.20
72484;DHT22;74199;52.014;5.430;2023-11-21T01:25:58;19.60;51.20
72484;DHT22;74199;52.014;5.430;2023-11-21T01:28:25;19.60;51.20
72484;DHT22;74199;52.014;5.430;2023-11-21T01:30:52;19.60;51.20
72484;DHT22;74199;52.014;5.430;2023-11-21T01:33:23;19.60;51.20
72484;DHT22;74199;52.014;5.430;2023-11-21T01:35:51;19.60;51.10
72484;DHT22;74199;52.014;5.430;2023-11-21T01:38:21;19.70;51.10
72484;DHT22;74199;52.014;5.430;2023-11-21T01:40:48;19.70;51.10
72484;DHT22;74199;52.014;5.430;2023-11-21T01:43:16;19.70;51.10
72484;DHT22;74199;52.014;5.430;2023-11-21T01:45:43;19.70;51.10
72484;DHT22;74199;52.014;5.430;2023-11-21T01:48:13;19.70;51.10
72484;DHT22;74199;52.014;5.430;2023-11-21T01:50:41;19.70;51.00
72484;DHT22;74199;52.014;5.430;2023-11-21T01:53:08;19.70;51.10
72484;DHT22;74199;52.014;5.430;2023-11-21T01:55:35;19.70;51.00
72484;DHT22;74199;52.014;5.430;2023-11-21T01:58:02;19.70;51.00
72484;DHT22;74199;52.014;5.430;2023-11-21T02:00:30;19.70;51.00
72484;DHT22;74199;52.014;5.430;2023-11-21T02:02:58;19.80;50.90
72484;DHT22;74199;52.014;5.430;2023-11-21T02:05:26;19.80;50.90
72484;DHT22;74199;52.014;5.430;2023-11-21T02:07:53;19.80;50.90
72484;DHT22;74199;52.014;5.430;2023-11-21T02:10:20;19.80;50.80
72484;DHT22;74199;52.014;5.430;2023-11-21T02:12:51;19.80;50.80
72484;DHT22;74199;52.014;5.430;2023-11-21T02:15:19;19.80;50.80
72484;DHT22;74199;52.014;5.430;2023-11-21T02:17:50;19.80;50.70
72484;DHT22;74199;52.014;5.430;2023-11-21T02:20:22;19.80;50.80
72484;DHT22;74199;52.014;5.430;2023-11-21T02:22:53;19.80;50.80
72484;DHT22;74199;52.014;5.430;2023-11-21T02:25:29;19.80;50.70
72484;DHT22;74199;52.014;5.430;2023-11-21T02:27:58;19.80;50.60
72484;DHT22;74199;52.014;5.430;2023-11-21T02:30:26;19.80;50.60
72484;DHT22;74199;52.014;5.430;2023-11-21T02:32:55;19.80;50.60
72484;DHT22;74199;52.014;5.430;2023-11-21T02:35:25;19.80;50.50
72484;DHT22;74199;52.014;5.430;2023-11-21T02:37:55;19.80;50.50
72484;DHT22;74199;52.014;5.430;2023-11-21T02:40:24;19.80;50.50
72484;DHT22;74199;52.014;5.430;2023-11-21T02:42:52;19.80;50.50
72484;DHT22;74199;52.014;5.430;2023-11-21T02:45:20;19.80;50.50
72484;DHT22;74199;52.014;5.430;2023-11-21T02:47:48;19.80;50.50
72484;DHT22;74199;52.014;5.430;2023-11-21T02:50:20;19.80;50.50
72484;DHT22;74199;52.014;5.430;2023-11-21T02:52:47;19.80;50.40
72484;DHT22;74199;52.014;5.430;2023-11-21T02:55:14;19.80;50.40
72484;DHT22;74199;52.014;5.430;2023-11-21T02:57:41;19.80;50.40
72484;DHT22;74199;52.014;5.430;2023-11-21T03:00:09;19.80;50.40
72484;DHT22;74199;52.014;5.430;2023-11-21T03:02:41;19.90;50.40
72484;DHT22;74199;52.014;5.430;2023-11-21T03:05:09;19.80;50.40
72484;DHT22;74199;52.014;5.430;2023-11-21T03:07:37;19.80;50.40
72484;DHT22;74199;52.014;5.430;2023-11-21T03:10:08;19.80;50.40
72484;DHT22;74199;52.014;5.430;2023-11-21T03:12:38;19.80;50.40
72484;DHT22;74199;52.014;5.430;2023-11-21T03:15:06;19.80;50.40
72484;DHT22;74199;52.014;5.430;2023-11-21T03:17:33;19.80;50.40
72484;DHT22;74199;52.014;5.430;2023-11-21T03:20:04;19.80;50.40
72484;DHT22;74199;52.014;5.430;2023-11-21T03:22:31;19.80;50.40
72484;DHT22;74199;52.014;5.430;2023-11-21T03:24:59;19.90;50.50
72484;DHT22;74199;52.014;5.430;2023-11-21T03:27:26;19.90;50.40
72484;DHT22;74199;52.014;5.430;2023-11-21T03:29:53;19.90;50.40
72484;DHT22;74199;52.014;5.430;2023-11-21T03:32:21;19.90;50.50
72484;DHT22;74199;52.014;5.430;2023-11-21T03:34:56;19.90;50.40
72484;DHT22;74199;52.014;5.430;2023-11-21T03:37:24;19.90;50.40
72484;DHT22;74199;52.014;5.430;2023-11-21T03:39:51;19.90;50.50
72484;DHT22;74199;52.014;5.430;2023-11-21T03:42:18;19.90;50.40
72484;DHT22;74199;52.014;5.430;2023-11-21T03:44:45;19.90;50.50
72484;DHT22;74199;52.014;5.430;2023-11-21T03:47:13;19.90;50.50
72484;DHT22;74199;52.014;5.430;2023-11-21T03:49:40;19.90;50.50
72484;DHT22;74199;52.014;5.430;2023-11-21T03:52:07;19.90;50.50
72484;DHT22;74199;52.014;5.430;2023-11-21T03:54:34;19.80;50.60
72484;DHT22;74199;52.014;5.430;2023-11-21T03:57:01;19.80;50.60
72484;DHT22;74199;52.014;5.430;2023-11-21T03:59:28;19.80;50.60
72484;DHT22;74199;52.014;5.430;2023-11-21T04:01:56;19.80;50.60
72484;DHT22;74199;52.014;5.430;2023-11-21T04:04:23;19.80;50.60
72484;DHT22;74199;52.014;5.430;2023-11-21T04:06:51;19.80;50.70
72484;DHT22;74199;52.014;5.430;2023-11-21T04:09:21;19.80;50.70
72484;DHT22;74199;52.014;5.430;2023-11-21T04:11:51;19.90;50.70
72484;DHT22;74199;52.014;5.430;2023-11-21T04:14:19;19.80;50.70
72484;DHT22;74199;52.014;5.430;2023-11-21T04:16:46;19.80;50.70
72484;DHT22;74199;52.014;5.430;2023-11-21T04:19:13;19.80;50.70
72484;DHT22;74199;52.014;5.430;2023-11-21T04:21:43;19.80;50.70
72484;DHT22;74199;52.014;5.430;2023-11-21T04:24:10;19.80;50.70
72484;DHT22;74199;52.014;5.430;2023-11-21T04:26:37;19.80;50.80
72484;DHT22;74199;52.014;5.430;2023-11-21T04:29:04;19.80;50.80
72484;DHT22;74199;52.014;5.430;2023-11-21T04:31:32;19.80;50.80
72484;DHT22;74199;52.014;5.430;2023-11-21T04:33:59;19.80;50.80
72484;DHT22;74199;52.014;5.430;2023-11-21T04:36:26;19.80;50.80
72484;DHT22;74199;52.014;5.430;2023-11-21T04:38:53;19.80;50.80
72484;DHT22;74199;52.014;5.430;2023-11-21T04:41:20;19.80;50.80
72484;DHT22;74199;52.014;5.430;2023-11-21T04:43:47;19.80;50.80
72484;DHT22;74199;52.014;5.430;2023-11-21T04:46:14;19.80;50.80
72484;DHT22;74199;52.014;5.430;2023-11-21T04:48:41;19.80;50.80
72484;DHT22;74199;52.014;5.430;2023-11-21T04:51:07;19.80;50.90
72484;DHT22;74199;52.014;5.430;2023-11-21T04:53:34;19.80;50.90
72484;DHT22;74199;52.014;5.430;2023-11-21T04:56:01;19.80;50.90
72484;DHT22;74199;52.014;5.430;2023-11-21T04:58:30;19.90;50.80
72484;DHT22;74199;52.014;5.430;2023-11-21T05:00:57;19.80;50.80
72484;DHT22;74199;52.014;5.430;2023-11-21T05:03:24;19.80;50.90
72484;DHT22;74199;52.014;5.430;2023-11-21T05:05:52;19.90;50.90
72484;DHT22;74199;52.014;5.430;2023-11-21T05:08:18;19.90;50.90
72484;DHT22;74199;52.014;5.430;2023-11-21T05:10:46;19.90;50.90
72484;DHT22;74199;52.014;5.430;2023-11-21T05:13:14;19.90;50.90
72484;DHT22;74199;52.014;5.430;2023-11-21T05:15:44;19.90;50.90
72484;DHT22;74199;52.014;5.430;2023-11-21T05:18:11;19.90;50.90
72484;DHT22;74199;52.014;5.430;2023-11-21T05:20:41;19.80;50.90
72484;DHT22;74199;52.014;5.430;2023-11-21T05:23:09;19.90;51.00
72484;DHT22;74199;52.014;5.430;2023-11-21T05:25:36;19.90;51.00
72484;DHT22;74199;52.014;5.430;2023-11-21T05:28:07;19.90;51.00
72484;DHT22;74199;52.014;5.430;2023-11-21T05:30:34;19.80;51.00
72484;DHT22;74199;52.014;5.430;2023-11-21T05:33:01;19.90;51.00
72484;DHT22;74199;52.014;5.430;2023-11-21T05:35:28;19.90;51.00
72484;DHT22;74199;52.014;5.430;2023-11-21T05:37:54;19.90;51.00
72484;DHT22;74199;52.014;5.430;2023-11-21T05:40:22;19.90;51.00
72484;DHT22;74199;52.014;5.430;2023-11-21T05:42:50;19.90;51.00
72484;DHT22;74199;52.014;5.430;2023-11-21T05:45:18;19.90;51.00
72484;DHT22;74199;52.014;5.430;2023-11-21T05:47:46;19.90;51.10
72484;DHT22;74199;52.014;5.430;2023-11-21T05:50:15;19.90;51.10
72484;DHT22;74199;52.014;5.430;2023-11-21T05:52:45;19.90;51.10
72484;DHT22;74199;52.014;5.430;2023-11-21T05:55:13;19.90;51.10
72484;DHT22;74199;52.014;5.430;2023-11-21T05:57:41;19.90;51.10
72484;DHT22;74199;52.014;5.430;2023-11-21T06:00:13;19.90;51.10
72484;DHT22;74199;52.014;5.430;2023-11-21T06:02:49;19.90;51.10
72484;DHT22;74199;52.014;5.430;2023-11-21T06:05:25;19.90;51.10
72484;DHT22;74199;52.014;5.430;2023-11-21T06:07:54;19.90;51.20
72484;DHT22;74199;52.014;5.430;2023-11-21T06:10:22;19.90;51.20
72484;DHT22;74199;52.014;5.430;2023-11-21T06:12:51;19.90;51.20
72484;DHT22;74199;52.014;5.430;2023-11-21T06:15:19;19.90;51.20
72484;DHT22;74199;52.014;5.430;2023-11-21T06:17:47;19.90;51.30
72484;DHT22;74199;52.014;5.430;2023-11-21T06:20:19;19.90;51.20
72484;DHT22;74199;52.014;5.430;2023-11-21T06:22:48;19.90;51.30
72484;DHT22;74199;52.014;5.430;2023-11-21T06:25:15;19.90;51.40
72484;DHT22;74199;52.014;5.430;2023-11-21T06:27:45;19.90;51.30
72484;DHT22;74199;52.014;5.430;2023-11-21T06:30:13;19.90;51.30
72484;DHT22;74199;52.014;5.430;2023-11-21T06:32:42;19.80;50.80
72484;DHT22;74199;52.014;5.430;2023-11-21T06:35:12;19.40;50.80
72484;DHT22;74199;52.014;5.430;2023-11-21T06:37:40;19.20;51.50
72484;DHT22;74199;52.014;5.430;2023-11-21T06:40:07;19.20;51.90
72484;DHT22;74199;52.014;5.430;2023-11-21T06:42:36;19.20;52.10
72484;DHT22;74199;52.014;5.430;2023-11-21T06:45:05;19.30;52.30
72484;DHT22;74199;52.014;5.430;2023-11-21T06:47:33;19.40;52.20
72484;DHT22;74199;52.014;5.430;2023-11-21T06:50:00;19.40;52.10
72484;DHT22;74199;52.014;5.430;2023-11-21T06:52:27;19.50;52.00
72484;DHT22;74199;52.014;5.430;2023-11-21T06:54:54;19.50;51.90
72484;DHT22;74199;52.014;5.430;2023-11-21T06:57:23;19.60;51.90
72484;DHT22;74199;52.014;5.430;2023-11-21T06:59:50;19.60;51.90
72484;DHT22;74199;52.014;5.430;2023-11-21T07:02:17;19.60;51.90
72484;DHT22;74199;52.014;5.430;2023-11-21T07:04:46;19.60;51.80
72484;DHT22;74199;52.014;5.430;2023-11-21T07:07:13;19.70;51.90
72484;DHT22;74199;52.014;5.430;2023-11-21T07:09:40;19.60;51.90
72484;DHT22;74199;52.014;5.430;2023-11-21T07:12:07;19.70;51.90
72484;DHT22;74199;52.014;5.430;2023-11-21T07:14:34;19.70;51.90
72484;DHT22;74199;52.014;5.430;2023-11-21T07:17:01;19.70;51.90
72484;DHT22;74199;52.014;5.430;2023-11-21T07:19:28;19.70;52.00
72484;DHT22;74199;52.014;5.430;2023-11-21T07:21:57;19.70;52.10
72484;DHT22;74199;52.014;5.430;2023-11-21T07:24:24;19.70;52.00
72484;DHT22;74199;52.014;5.430;2023-11-21T07:26:53;19.70;52.10
72484;DHT22;74199;52.014;5.430;2023-11-21T07:29:24;19.80;52.10
72484;DHT22;74199;52.014;5.430;2023-11-21T07:31:56;19.70;52.10
72484;DHT22;74199;52.014;5.430;2023-11-21T07:34:24;19.70;52.20
72484;DHT22;74199;52.014;5.430;2023-11-21T07:36:51;19.70;52.30
72484;DHT22;74199;52.014;5.430;2023-11-21T07:39:18;19.80;52.40
72484;DHT22;74199;52.014;5.430;2023-11-21T07:41:45;19.80;52.40
72484;DHT22;74199;52.014;5.430;2023-11-21T07:44:16;19.80;52.40
72484;DHT22;74199;52.014;5.430;2023-11-21T07:46:43;19.80;52.30
72484;DHT22;74199;52.014;5.430;2023-11-21T07:49:11;19.80;52.30
72484;DHT22;74199;52.014;5.430;2023-11-21T07:51:38;19.80;52.30
72484;DHT22;74199;52.014;5.430;2023-11-21T07:54:05;19.80;52.40
72484;DHT22;74199;52.014;5.430;2023-11-21T07:56:32;19.80;52.40
72484;DHT22;74199;52.014;5.430;2023-11-21T07:58:59;19.80;52.40
72484;DHT22;74199;52.014;5.430;2023-11-21T08:01:26;19.80;52.50
72484;DHT22;74199;52.014;5.430;2023-11-21T08:03:54;19.80;52.40
72484;DHT22;74199;52.014;5.430;2023-11-21T08:06:24;19.80;52.40
72484;DHT22;74199;52.014;5.430;2023-11-21T08:08:52;19.80;52.50
72484;DHT22;74199;52.014;5.430;2023-11-21T08:11:19;19.80;52.50
72484;DHT22;74199;52.014;5.430;2023-11-21T08:13:48;19.80;52.50
72484;DHT22;74199;52.014;5.430;2023-11-21T08:16:16;19.80;52.50
72484;DHT22;74199;52.014;5.430;2023-11-21T08:18:43;19.80;52.50
72484;DHT22;74199;52.014;5.430;2023-11-21T08:21:12;19.80;52.50
72484;DHT22;74199;52.014;5.430;2023-11-21T08:23:40;19.90;52.60
72484;DHT22;74199;52.014;5.430;2023-11-21T08:26:06;19.80;52.60
72484;DHT22;74199;52.014;5.430;2023-11-21T08:28:35;19.80;52.60
72484;DHT22;74199;52.014;5.430;2023-11-21T08:31:02;19.80;52.60
72484;DHT22;74199;52.014;5.430;2023-11-21T08:33:31;19.80;52.70
72484;DHT22;74199;52.014;5.430;2023-11-21T08:35:58;19.80;52.70
72484;DHT22;74199;52.014;5.430;2023-11-21T08:38:25;19.80;52.70
72484;DHT22;74199;52.014;5.430;2023-11-21T08:40:52;19.90;52.80
72484;DHT22;74199;52.014;5.430;2023-11-21T08:43:19;19.90;52.80
72484;DHT22;74199;52.014;5.430;2023-11-21T08:45:46;19.90;52.80
72484;DHT22;74199;52.014;5.430;2023-11-21T08:48:13;19.90;52.90
72484;DHT22;74199;52.014;5.430;2023-11-21T08:50:40;19.90;52.90
72484;DHT22;74199;52.014;5.430;2023-11-21T08:53:07;19.90;52.90
72484;DHT22;74199;52.014;5.430;2023-11-21T08:55:34;19.90;52.90
72484;DHT22;74199;52.014;5.430;2023-11-21T08:58:04;19.90;53.00
72484;DHT22;74199;52.014;5.430;2023-11-21T09:00:33;19.90;53.00
72484;DHT22;74199;52.014;5.430;2023-11-21T09:03:01;19.90;53.10
72484;DHT22;74199;52.014;5.430;2023-11-21T09:05:30;19.90;53.10
72484;DHT22;74199;52.014;5.430;2023-11-21T09:07:57;19.90;53.10
72484;DHT22;74199;52.014;5.430;2023-11-21T09:10:24;19.90;53.20
72484;DHT22;74199;52.014;5.430;2023-11-21T09:12:52;19.90;53.20
72484;DHT22;74199;52.014;5.430;2023-11-21T09:15:19;19.90;53.30
72484;DHT22;74199;52.014;5.430;2023-11-21T09:17:47;19.90;53.40
72484;DHT22;74199;52.014;5.430;2023-11-21T09:20:15;19.90;53.40
72484;DHT22;74199;52.014;5.430;2023-11-21T09:22:42;19.90;53.40
72484;DHT22;74199;52.014;5.430;2023-11-21T09:25:11;19.90;53.50
72484;DHT22;74199;52.014;5.430;2023-11-21T09:27:39;19.90;53.60
72484;DHT22;74199;52.014;5.430;2023-11-21T09:30:07;19.90;53.60
72484;DHT22;74199;52.014;5.430;2023-11-21T09:32:40;19.90;53.60
72484;DHT22;74199;52.014;5.430;2023-11-21T09:35:08;19.90;53.70
72484;DHT22;74199;52.014;5.430;2023-11-21T09:37:35;19.90;53.70
72484;DHT22;74199;52.014;5.430;2023-11-21T09:40:03;19.90;53.70
72484;DHT22;74199;52.014;5.430;2023-11-21T09:42:37;19.90;53.80
72484;DHT22;74199;52.014;5.430;2023-11-21T09:47:37;20.00;53.80
72484;DHT22;74199;52.014;5.430;2023-11-21T09:50:05;20.00;53.80
72484;DHT22;74199;52.014;5.430;2023-11-21T09:52:45;20.00;53.90
72484;DHT22;74199;52.014;5.430;2023-11-21T09:55:18;20.00;53.90
72484;DHT22;74199;52.014;5.430;2023-11-21T09:57:48;20.00;54.00
72484;DHT22;74199;52.014;5.430;2023-11-21T10:00:16;20.00;54.00
72484;DHT22;74199;52.014;5.430;2023-11-21T10:02:44;20.00;54.00
72484;DHT22;74199;52.014;5.430;2023-11-21T10:05:12;20.00;54.10
72484;DHT22;74199;52.014;5.430;2023-11-21T10:07:39;20.00;54.10
72484;DHT22;74199;52.014;5.430;2023-11-21T10:10:08;20.00;54.10
72484;DHT22;74199;52.014;5.430;2023-11-21T10:12:36;20.00;54.10
72484;DHT22;74199;52.014;5.430;2023-11-21T10:15:08;20.00;54.10
72484;DHT22;74199;52.014;5.430;2023-11-21T10:17:40;20.00;54.10
72484;DHT22;74199;52.014;5.430;2023-11-21T10:20:11;20.00;54.10
72484;DHT22;74199;52.014;5.430;2023-11-21T10:22:41;20.00;54.10
72484;DHT22;74199;52.014;5.430;2023-11-21T10:25:12;20.00;54.20
72484;DHT22;74199;52.014;5.430;2023-11-21T10:27:41;20.00;54.20
72484;DHT22;74199;52.014;5.430;2023-11-21T10:30:09;20.00;54.20
72484;DHT22;74199;52.014;5.430;2023-11-21T10:32:39;20.00;54.20
72484;DHT22;74199;52.014;5.430;2023-11-21T10:35:08;20.00;54.20
72484;DHT22;74199;52.014;5.430;2023-11-21T10:37:39;20.00;54.20
72484;DHT22;74199;52.014;5.430;2023-11-21T10:40:10;20.00;54.20
72484;DHT22;74199;52.014;5.430;2023-11-21T10:42:40;20.00;54.20
72484;DHT22;74199;52.014;5.430;2023-11-21T10:45:09;20.00;54.30
72484;DHT22;74199;52.014;5.430;2023-11-21T10:47:44;19.90;54.30
72484;DHT22;74199;52.014;5.430;2023-11-21T10:50:11;19.90;54.30
72484;DHT22;74199;52.014;5.430;2023-11-21T10:52:41;19.90;54.40
72484;DHT22;74199;52.014;5.430;2023-11-21T10:55:20;19.90;54.40
72484;DHT22;74199;52.014;5.430;2023-11-21T10:57:51;19.90;54.40
72484;DHT22;74199;52.014;5.430;2023-11-21T11:00:19;19.90;54.40
72484;DHT22;74199;52.014;5.430;2023-11-21T11:02:52;19.90;54.40
72484;DHT22;74199;52.014;5.430;2023-11-21T11:05:23;19.90;54.40
72484;DHT22;74199;52.014;5.430;2023-11-21T11:08:13;19.90;54.50
72484;DHT22;74199;52.014;5.430;2023-11-21T11:10:46;19.90;54.40
72484;DHT22;74199;52.014;5.430;2023-11-21T11:13:16;19.90;54.40
72484;DHT22;74199;52.014;5.430;2023-11-21T11:15:47;19.90;54.50
72484;DHT22;74199;52.014;5.430;2023-11-21T11:18:15;19.90;54.50
72484;DHT22;74199;52.014;5.430;2023-11-21T11:20:43;19.90;54.50
72484;DHT22;74199;52.014;5.430;2023-11-21T11:29:14;19.90;54.40
72484;DHT22;74199;52.014;5.430;2023-11-21T11:34:44;19.90;54.40
72484;DHT22;74199;52.014;5.430;2023-11-21T11:37:13;19.90;54.50
72484;DHT22;74199;52.014;5.430;2023-11-21T11:39:41;19.90;54.50
72484;DHT22;74199;52.014;5.430;2023-11-21T11:42:16;19.90;54.60
72484;DHT22;74199;52.014;5.430;2023-11-21T11:47:27;19.90;54.60
72484;DHT22;74199;52.014;5.430;2023-11-21T11:50:07;19.90;54.60
72484;DHT22;74199;52.014;5.430;2023-11-21T11:52:40;19.90;54.60
72484;DHT22;74199;52.014;5.430;2023-11-21T11:55:09;19.90;54.60
72484;DHT22;74199;52.014;5.430;2023-11-21T11:57:37;19.90;54.70
72484;DHT22;74199;52.014;5.430;2023-11-21T12:00:10;19.90;54.70
72484;DHT22;74199;52.014;5.430;2023-11-21T12:02:40;19.90;54.70
72484;DHT22;74199;52.014;5.430;2023-11-21T12:05:11;19.80;54.80
72484;DHT22;74199;52.014;5.430;2023-11-21T12:07:51;19.80;54.80
72484;DHT22;74199;52.014;5.430;2023-11-21T12:10:23;19.90;54.80
72484;DHT22;74199;52.014;5.430;2023-11-21T12:12:54;19.90;54.80
72484;DHT22;74199;52.014;5.430;2023-11-21T12:15:22;19.90;54.80
72484;DHT22;74199;52.014;5.430;2023-11-21T12:17:50;19.90;54.80
72484;DHT22;74199;52.014;5.430;2023-11-21T12:20:24;19.90;54.80
72484;DHT22;74199;52.014;5.430;2023-11-21T12:22:53;19.90;54.80
72484;DHT22;74199;52.014;5.430;2023-11-21T12:25:25;19.90;54.80
72484;DHT22;74199;52.014;5.430;2023-11-21T12:27:55;19.90;54.80
72484;DHT22;74199;52.014;5.430;2023-11-21T12:30:28;19.90;54.80
72484;DHT22;74199;52.014;5.430;2023-11-21T12:32:58;19.90;54.80
72484;DHT22;74199;52.014;5.430;2023-11-21T12:35:32;19.90;54.80
72484;DHT22;74199;52.014;5.430;2023-11-21T12:38:04;19.90;54.80
72484;DHT22;74199;52.014;5.430;2023-11-21T12:40:36;19.90;54.80
72484;DHT22;74199;52.014;5.430;2023-11-21T12:43:03;19.90;54.80
72484;DHT22;74199;52.014;5.430;2023-11-21T12:45:31;19.90;54.80
72484;DHT22;74199;52.014;5.430;2023-11-21T12:48:03;19.90;54.80
72484;DHT22;74199;52.014;5.430;2023-11-21T12:50:35;19.90;54.80
72484;DHT22;74199;52.014;5.430;2023-11-21T12:53:10;19.90;54.90
72484;DHT22;74199;52.014;5.430;2023-11-21T12:55:40;19.90;54.90
72484;DHT22;74199;52.014;5.430;2023-11-21T12:58:09;19.90;55.00
72484;DHT22;74199;52.014;5.430;2023-11-21T13:00:48;19.90;55.00
72484;DHT22;74199;52.014;5.430;2023-11-21T13:03:16;19.90;55.10
72484;DHT22;74199;52.014;5.430;2023-11-21T13:05:47;19.90;55.00
72484;DHT22;74199;52.014;5.430;2023-11-21T13:08:21;19.90;55.00
72484;DHT22;74199;52.014;5.430;2023-11-21T13:10:55;19.90;54.90
72484;DHT22;74199;52.014;5.430;2023-11-21T13:13:25;19.90;54.90
72484;DHT22;74199;52.014;5.430;2023-11-21T13:16:00;19.90;54.90
72484;DHT22;74199;52.014;5.430;2023-11-21T13:18:35;20.00;54.80
72484;DHT22;74199;52.014;5.430;2023-11-21T13:21:04;19.90;54.90
72484;DHT22;74199;52.014;5.430;2023-11-21T13:23:41;19.90;54.90
72484;DHT22;74199;52.014;5.430;2023-11-21T13:26:09;19.90;54.90
72484;DHT22;74199;52.014;5.430;2023-11-21T13:28:36;19.90;54.90
72484;DHT22;74199;52.014;5.430;2023-11-21T13:31:05;19.90;54.80
72484;DHT22;74199;52.014;5.430;2023-11-21T13:33:49;19.90;54.80
72484;DHT22;74199;52.014;5.430;2023-11-21T13:36:32;19.90;54.80
72484;DHT22;74199;52.014;5.430;2023-11-21T13:39:03;19.90;54.80
72484;DHT22;74199;52.014;5.430;2023-11-21T13:41:31;19.90;54.80
72484;DHT22;74199;52.014;5.430;2023-11-21T13:43:58;19.90;54.80
72484;DHT22;74199;52.014;5.430;2023-11-21T13:46:41;19.90;54.90
72484;DHT22;74199;52.014;5.430;2023-11-21T13:49:08;19.90;54.90
72484;DHT22;74199;52.014;5.430;2023-11-21T13:51:37;19.90;54.80
72484;DHT22;74199;52.014;5.430;2023-11-21T13:54:08;19.90;54.90
72484;DHT22;74199;52.014;5.430;2023-11-21T13:56:37;19.90;54.80
72484;DHT22;74199;52.014;5.430;2023-11-21T13:59:06;19.80;54.90
72484;DHT22;74199;52.014;5.430;2023-11-21T14:01:49;19.80;54.90
72484;DHT22;74199;52.014;5.430;2023-11-21T14:04:24;19.80;54.90
72484;DHT22;74199;52.014;5.430;2023-11-21T14:07:10;19.80;55.00
72484;DHT22;74199;52.014;5.430;2023-11-21T14:09:49;19.80;55.00
72484;DHT22;74199;52.014;5.430;2023-11-21T14:12:16;19.80;55.00
72484;DHT22;74199;52.014;5.430;2023-11-21T14:14:43;19.80;55.10
72484;DHT22;74199;52.014;5.430;2023-11-21T14:17:11;19.80;55.10
72484;DHT22;74199;52.014;5.430;2023-11-21T14:19:38;19.80;55.20
72484;DHT22;74199;52.014;5.430;2023-11-21T14:22:10;19.80;55.10
72484;DHT22;74199;52.014;5.430;2023-11-21T14:24:37;19.90;55.10
72484;DHT22;74199;52.014;5.430;2023-11-21T14:27:08;19.90;55.10
72484;DHT22;74199;52.014;5.430;2023-11-21T14:29:35;19.90;55.00
72484;DHT22;74199;52.014;5.430;2023-11-21T14:32:07;19.90;55.00
72484;DHT22;74199;52.014;5.430;2023-11-21T14:34:34;19.90;54.90
72484;DHT22;74199;52.014;5.430;2023-11-21T14:37:02;19.90;54.80
72484;DHT22;74199;52.014;5.430;2023-11-21T14:39:31;19.90;54.80
72484;DHT22;74199;52.014;5.430;2023-11-21T14:42:04;19.80;54.70
72484;DHT22;74199;52.014;5.430;2023-11-21T14:44:31;19.90;54.70
72484;DHT22;74199;52.014;5.430;2023-11-21T14:47:04;19.90;54.70
72484;DHT22;74199;52.014;5.430;2023-11-21T14:49:39;19.90;54.60
72484;DHT22;74199;52.014;5.430;2023-11-21T14:52:19;19.90;54.60
72484;DHT22;74199;52.014;5.430;2023-11-21T14:55:07;19.90;54.60
72484;DHT22;74199;52.014;5.430;2023-11-21T14:57:49;19.90;54.60
72484;DHT22;74199;52.014;5.430;2023-11-21T15:00:20;19.80;54.60
72484;DHT22;74199;52.014;5.430;2023-11-21T15:03:00;19.80;54.70
72484;DHT22;74199;52.014;5.430;2023-11-21T15:05:28;19.80;54.60
72484;DHT22;74199;52.014;5.430;2023-11-21T15:07:56;19.80;54.60
72484;DHT22;74199;52.014;5.430;2023-11-21T15:10:24;19.80;54.60
72484;DHT22;74199;52.014;5.430;2023-11-21T15:13:06;19.80;54.60
72484;DHT22;74199;52.014;5.430;2023-11-21T15:15:37;19.80;54.60
72484;DHT22;74199;52.014;5.430;2023-11-21T15:18:06;19.80;54.50
72484;DHT22;74199;52.014;5.430;2023-11-21T15:20:33;19.80;54.50
72484;DHT22;74199;52.014;5.430;2023-11-21T15:23:00;19.80;54.50
72484;DHT22;74199;52.014;5.430;2023-11-21T15:25:29;19.80;54.40
72484;DHT22;74199;52.014;5.430;2023-11-21T15:27:56;19.90;54.40
72484;DHT22;74199;52.014;5.430;2023-11-21T15:30:23;19.80;54.30
72484;DHT22;74199;52.014;5.430;2023-11-21T15:32:52;19.90;54.30
72484;DHT22;74199;52.014;5.430;2023-11-21T15:35:20;19.90;54.20
72484;DHT22;74199;52.014;5.430;2023-11-21T15:37:47;19.80;54.10
72484;DHT22;74199;52.014;5.430;2023-11-21T15:40:14;19.80;54.10
72484;DHT22;74199;52.014;5.430;2023-11-21T15:42:43;19.80;54.10
72484;DHT22;74199;52.014;5.430;2023-11-21T15:45:11;19.80;54.10
72484;DHT22;74199;52.014;5.430;2023-11-21T15:47:38;19.80;54.00
72484;DHT22;74199;52.014;5.430;2023-11-21T15:50:06;19.80;53.90
72484;DHT22;74199;52.014;5.430;2023-11-21T15:52:36;19.80;53.80
72484;DHT22;74199;52.014;5.430;2023-11-21T15:55:22;19.80;53.80
72484;DHT22;74199;52.014;5.430;2023-11-21T15:57:48;19.80;53.70